Time;durP1;ratioP1;P1;durP2;ratioP2;P2;SDS_P1;SDS_P2;PMS_P1;PMS_P2;Temp;Humidity;BMP_temperature;BMP_pressure;BME280_temperature;BME280_humidity;BME280_pressure;Samples;Min_cycle;Max_cycle;Signal;HPM_P1;HPM_P2
2023/10/19 00:00:21;;;;;;;16.45;11.48;;;;;;;;;;5094561;28;20097;-92
2023/10/19 00:02:51;;;;;;;17.17;11.52;;;;;;;;;;5105296;27;20507;-82
2023/10/19 00:05:17;;;;;;;18.20;12.02;;;;;;;;;;5134305;27;20495;-87
2023/10/19 00:07:44;;;;;;;14.73;10.80;;;;;;;;;;5126595;27;20048;-90
2023/10/19 00:10:14;;;;;;;20.95;12.98;;;;;;;;;;5125924;27;20117;-82
2023/10/19 00:12:41;;;;;;;18.02;12.00;;;;;;;;;;5095820;28;20088;-92
2023/10/19 00:15:09;;;;;;;18.08;12.43;;;;;;;;;;5095089;28;20092;-86
2023/10/19 00:17:35;;;;;;;18.15;11.70;;;;;;;;;;5112136;28;20495;-81
2023/10/19 00:22:47;;;;;;;21.50;12.88;;;;;;;;;;5114837;27;20071;-82
2023/10/19 00:25:13;;;;;;;19.60;12.85;;;;;;;;;;5115334;27;20407;-79
2023/10/19 00:27:42;;;;;;;18.45;12.85;;;;;;;;;;5132301;27;20038;-89
2023/10/19 00:30:10;;;;;;;18.60;12.68;;;;;;;;;;5127734;27;20039;-91
2023/10/19 00:32:38;;;;;;;17.75;12.52;;;;;;;;;;5096827;27;20122;-88
2023/10/19 00:35:21;;;;;;;17.95;12.70;;;8.70;28.50;;;;;;5131086;27;20449;-88
2023/10/19 00:37:48;;;;;;;20.15;13.45;;;;;;;;;;5100190;27;20043;-83
2023/10/19 00:40:19;;;;;;;20.88;12.35;;;;;;;;;;5115145;28;20051;-85
2023/10/19 00:42:46;;;;;;;18.35;12.57;;;;;;;;;;5110231;28;20142;-89
2023/10/19 00:45:13;;;;;;;18.92;12.85;;;;;;;;;;5119693;27;20130;-92
2023/10/19 00:47:42;;;;;;;17.70;12.90;;;;;;;;;;5131737;27;20467;-89
2023/10/19 00:50:17;;;;;;;16.85;11.35;;;;;;;;;;5133843;27;20448;-89
2023/10/19 00:52:46;;;;;;;18.15;13.48;;;;;;;;;;5111983;28;20043;-91
2023/10/19 00:55:14;;;;;;;17.00;12.43;;;;;;;;;;5112683;28;20055;-89
2023/10/19 00:57:46;;;;;;;27.42;14.50;;;;;;;;;;5111692;28;20044;-91
2023/10/19 01:00:13;;;;;;;21.25;13.65;;;;;;;;;;5094976;28;20133;-92
2023/10/19 01:02:46;;;;;;;20.27;13.95;;;;;;;;;;5104633;28;20165;-85
2023/10/19 01:05:21;;;;;;;18.83;13.32;;;;;;;;;;5094795;28;20084;-91
2023/10/19 01:07:53;;;;;;;19.77;12.77;;;;;;;;;;5111631;28;20048;-83
2023/10/19 01:10:23;;;;;;;17.75;11.90;;;;;;;;;;5111471;28;20044;-87
2023/10/19 01:12:50;;;;;;;21.48;13.77;;;;;;;;;;5094350;28;20047;-88
2023/10/19 01:15:17;;;;;;;20.35;14.20;;;8.40;35.10;;;;;;5118254;28;20074;-88
2023/10/19 01:17:56;;;;;;;20.60;13.52;;;8.50;37.80;;;;;;5133761;27;20050;-92
2023/10/19 01:23:09;;;;;;;24.17;15.40;;;;;;;;;;5111728;28;20063;-93
2023/10/19 01:25:50;;;;;;;15.98;12.95;;;;;;;;;;5112942;28;20052;-92
2023/10/19 01:28:19;;;;;;;21.77;14.18;;;8.60;40.40;;;;;;5093297;28;20054;-85
2023/10/19 01:30:45;;;;;;;19.23;12.45;;;8.50;36.40;;;;;;5112112;28;20074;-93
2023/10/19 01:33:21;;;;;;;20.88;13.65;;;;;;;;;;5111934;28;20051;-93
2023/10/19 01:38:32;;;;;;;24.52;14.85;;;;;;;;;;5115605;28;20492;-86
2023/10/19 01:41:15;;;;;;;21.05;14.93;;;;;;;;;;5094216;28;20587;-94
2023/10/19 01:43:46;;;;;;;20.70;13.95;;;8.50;43.10;;;;;;5111470;28;20504;-81
2023/10/19 01:46:13;;;;;;;23.63;14.10;;;;;;;;;;5097067;27;20074;-85
2023/10/19 01:48:48;;;;;;;21.58;13.77;;;;;;;;;;5127299;27;20493;-86
2023/10/19 01:51:14;;;;;;;19.38;13.80;;;;;;;;;;5116367;28;20044;-85
2023/10/19 01:53:43;;;;;;;19.80;14.05;;;8.70;40.20;;;;;;5102395;28;20400;-84
2023/10/19 01:56:10;;;;;;;19.08;12.63;;;8.60;38.20;;;;;;5098228;28;20153;-91
2023/10/19 01:58:41;;;;;;;19.50;13.80;;;8.50;39.40;;;;;;5113885;28;20028;-81
2023/10/19 02:03:42;;;;;;;17.90;13.23;;;8.60;43.10;;;;;;5114750;28;20040;-84
2023/10/19 02:06:19;;;;;;;19.63;14.13;;;8.30;40.60;;;;;;5115007;28;20094;-81
2023/10/19 02:08:55;;;;;;;18.98;13.93;;;;;;;;;;5113604;28;20175;-83
2023/10/19 02:11:22;;;;;;;18.27;13.05;;;8.40;43.60;;;;;;5115626;27;20108;-82
2023/10/19 02:13:50;;;;;;;18.40;12.93;;;8.60;44.00;;;;;;5114574;28;20036;-85
2023/10/19 02:16:20;;;;;;;17.25;12.98;;;;;;;;;;5114754;28;20192;-88
2023/10/19 02:18:46;;;;;;;19.02;12.60;;;;;;;;;;5113580;28;20039;-87
2023/10/19 02:21:12;;;;;;;14.63;11.48;;;;;;;;;;5097619;28;20044;-90
2023/10/19 02:23:42;;;;;;;16.45;12.60;;;;;;;;;;5097540;28;20078;-90
2023/10/19 02:26:13;;;;;;;13.68;10.88;;;;;;;;;;5114214;28;20507;-89
2023/10/19 02:28:39;;;;;;;17.65;12.27;;;;;;;;;;5096472;28;20089;-87
2023/10/19 02:31:18;;;;;;;20.23;13.63;;;;;;;;;;5111763;27;20043;-88
2023/10/19 02:34:07;;;;;;;16.55;11.70;;;;;;;;;;5117521;27;20396;-89
2023/10/19 02:36:32;;;;;;;15.02;10.35;;;;;;;;;;5133879;27;20492;-89
2023/10/19 02:38:58;;;;;;;16.00;10.73;;;;;;;;;;5088128;28;20040;-88
2023/10/19 02:41:26;;;;;;;20.30;11.57;;;;;;;;;;5111747;28;20051;-90
2023/10/19 02:46:31;;;;;;;14.35;10.73;;;;;;;;;;5115034;28;20053;-91
2023/10/19 02:49:04;;;;;;;16.02;11.23;;;;;;;;;;5114433;28;20050;-91
2023/10/19 02:51:31;;;;;;;16.40;10.45;;;;;;;;;;5097356;28;20039;-92
2023/10/19 02:54:02;;;;;;;12.73;9.93;;;;;;;;;;5132775;27;20085;-90
2023/10/19 02:56:29;;;;;;;14.13;10.65;;;;;;;;;;5133733;27;20043;-89
2023/10/19 02:59:03;;;;;;;16.98;10.60;;;;;;;;;;5126656;27;20089;-88
2023/10/19 03:01:31;;;;;;;12.88;9.75;;;;;;;;;;5114160;28;20044;-92
2023/10/19 03:03:59;;;;;;;12.30;8.85;;;;;;;;;;5114429;27;20100;-89
2023/10/19 03:06:26;;;;;;;11.80;9.45;;;;;;;;;;5113487;28;20043;-88
2023/10/19 03:08:57;;;;;;;13.70;9.38;;;;;;;;;;5113082;28;20047;-88
2023/10/19 03:11:27;;;;;;;10.98;8.20;;;;;;;;;;5112882;28;20130;-90
2023/10/19 03:13:53;;;;;;;11.77;9.38;;;;;;;;;;5114223;28;20418;-87
2023/10/19 03:16:20;;;;;;;12.55;8.98;;;;;;;;;;5129416;27;20035;-85
2023/10/19 03:18:47;;;;;;;12.73;9.25;;;8.70;52.50;;;;;;5125400;27;20046;-84
2023/10/19 03:21:13;;;;;;;12.48;8.48;;;;;;;;;;5112653;28;20048;-86
2023/10/19 03:23:40;;;;;;;10.52;8.05;;;;;;;;;;5113479;27;20507;-88
2023/10/19 03:26:27;;;;;;;10.95;8.63;;;;;;;;;;5112659;28;20074;-88
2023/10/19 03:29:00;;;;;;;12.48;8.30;;;;;;;;;;5125906;27;20119;-78
2023/10/19 03:31:26;;;;;;;8.95;7.97;;;;;;;;;;5112408;28;20131;-83
2023/10/19 03:33:55;;;;;;;9.52;7.28;;;8.50;52.80;;;;;;5112374;28;20453;-83
2023/10/19 03:36:22;;;;;;;10.00;7.57;;;;;;;;;;5095437;28;20044;-84
2023/10/19 03:38:50;;;;;;;11.70;7.80;;;;;;;;;;5094358;28;20044;-84
2023/10/19 03:41:20;;;;;;;10.50;7.45;;;;;;;;;;5112060;28;20083;-87
2023/10/19 03:43:47;;;;;;;10.40;7.70;;;;;;;;;;5096192;28;20079;-86
2023/10/19 03:46:31;;;;;;;8.90;7.65;;;;;;;;;;5112367;28;20046;-86
2023/10/19 03:49:07;;;;;;;;;;;;;;;;;;5125942;27;20039;-87
2023/10/19 03:51:40;;;;;;;8.55;6.75;;;;;;;;;;5125840;27;19966;-82
2023/10/19 03:54:22;;;;;;;12.40;8.07;;;;;;;;;;5114309;27;20087;-87
2023/10/19 03:56:52;;;;;;;8.77;7.00;;;;;;;;;;5113627;27;20126;-88
2023/10/19 03:59:18;;;;;;;10.32;8.38;;;;;;;;;;5125324;27;20438;-87
2023/10/19 04:01:45;;;;;;;11.57;8.35;;;;;;;;;;5112023;28;20047;-90
2023/10/19 04:04:11;;;;;;;9.23;7.38;;;;;;;;;;5128988;27;20031;-89
2023/10/19 04:06:37;;;;;;;11.63;8.02;;;;;;;;;;5133163;27;20047;-90
2023/10/19 04:09:05;;;;;;;9.65;7.75;;;;;;;;;;5134107;27;20047;-90
2023/10/19 04:11:51;;;;;;;9.40;7.20;;;;;;;;;;5093251;28;20484;-90
2023/10/19 04:14:18;;;;;;;9.88;7.70;;;;;;;;;;5082191;27;20050;-90
2023/10/19 04:16:44;;;;;;;9.00;7.78;;;;;;;;;;5114049;27;20067;-89
2023/10/19 04:19:11;;;;;;;9.13;7.63;;;;;;;;;;5098986;28;20053;-89
2023/10/19 04:21:43;;;;;;;9.40;7.65;;;;;;;;;;5110958;28;20048;-88
2023/10/19 04:24:10;;;;;;;8.23;6.75;;;;;;;;;;5079016;28;20097;-91
2023/10/19 04:26:37;;;;;;;8.95;6.90;;;;;;;;;;5131513;27;20075;-90
2023/10/19 04:29:12;;;;;;;8.10;6.78;;;;;;;;;;5115095;27;20046;-88
2023/10/19 04:32:00;;;;;;;8.13;6.93;;;;;;;;;;5113866;27;20040;-89
2023/10/19 04:34:25;;;;;;;8.30;7.40;;;;;;;;;;5111659;27;20090;-90
2023/10/19 04:36:52;;;;;;;9.27;7.70;;;;;;;;;;5109124;28;20158;-93
2023/10/19 04:39:21;;;;;;;8.43;7.05;;;;;;;;;;5112552;28;20043;-88
2023/10/19 04:41:50;;;;;;;7.75;6.18;;;;;;;;;;5132238;27;20078;-92
2023/10/19 04:44:19;;;;;;;9.18;6.63;;;;;;;;;;5133188;27;20043;-92
2023/10/19 04:46:46;;;;;;;6.70;6.00;;;;;;;;;;5111710;28;20040;-91
2023/10/19 04:49:12;;;;;;;7.30;6.25;;;;;;;;;;5096016;28;20100;-92
2023/10/19 04:52:08;;;;;;;6.53;5.85;;;;;;;;;;5113157;28;20078;-91
2023/10/19 04:54:39;;;;;;;6.90;5.57;;;;;;;;;;5114791;28;20039;-92
2023/10/19 04:57:06;;;;;;;6.53;5.82;;;;;;;;;;5127828;28;20074;-92
2023/10/19 04:59:33;;;;;;;7.43;5.82;;;;;;;;;;5095585;28;20108;-92
2023/10/19 05:02:02;;;;;;;6.53;5.93;;;;;;;;;;5112801;28;20480;-89
2023/10/19 05:04:29;;;;;;;6.55;5.47;;;;;;;;;;5120712;28;20035;-79
2023/10/19 05:06:55;;;;;;;5.95;5.20;;;;;;;;;;5098903;28;20075;-86
2023/10/19 05:09:22;;;;;;;6.80;5.30;;;;;;;;;;5106089;28;20043;-82
2023/10/19 05:11:48;;;;;;;6.25;5.63;;;;;;;;;;5108136;28;20039;-82
2023/10/19 05:14:14;;;;;;;6.63;5.25;;;;;;;;;;5094904;28;20043;-82
2023/10/19 05:16:40;;;;;;;6.20;5.47;;;;;;;;;;5112624;28;20047;-78
2023/10/19 05:19:07;;;;;;;9.13;6.70;;;;;;;;;;5121106;27;20404;-85
2023/10/19 05:21:34;;;;;;;5.45;4.65;;;;;;;;;;5097241;28;20511;-84
2023/10/19 05:24:00;;;;;;;7.70;5.57;;;;;;;;;;5115038;27;20496;-83
2023/10/19 05:26:26;;;;;;;6.30;5.63;;;;;;;;;;5116258;27;20047;-80
2023/10/19 05:28:54;;;;;;;5.05;4.53;;;;;;;;;;5124330;27;20045;-83
2023/10/19 05:31:20;;;;;;;6.68;5.05;;;;;;;;;;5116012;27;20039;-85
2023/10/19 05:33:49;;;;;;;5.55;4.95;;;;;;;;;;5133760;27;20072;-80
2023/10/19 05:36:15;;;;;;;4.72;4.22;;;;;;;;;;5111468;27;20047;-85
2023/10/19 05:38:42;;;;;;;8.48;5.57;;;;;;;;;;5118915;27;20035;-79
2023/10/19 05:41:08;;;;;;;5.82;5.22;;;;;;;;;;5100107;27;20039;-86
2023/10/19 05:43:34;;;;;;;4.93;4.45;;;;;;;;;;5110949;27;20039;-79
2023/10/19 05:46:00;;;;;;;5.28;4.32;;;;;;;;;;5128757;27;20461;-77
2023/10/19 05:48:27;;;;;;;6.45;5.28;;;;;;;;;;5111829;27;20039;-82
2023/10/19 05:50:53;;;;;;;6.13;4.93;;;;;;;;;;5108540;27;20114;-85
2023/10/19 05:53:22;;;;;;;5.93;4.50;;;;;;;;;;5089552;28;20189;-83
2023/10/19 05:55:49;;;;;;;4.60;4.05;;;;;;;;;;5116045;27;20067;-80
2023/10/19 05:58:15;;;;;;;5.07;4.10;;;;;;;;;;5120500;27;20444;-84
2023/10/19 06:00:42;;;;;;;4.50;4.00;;;;;;;;;;5113575;27;20063;-81
2023/10/19 06:03:08;;;;;;;4.43;3.90;;;;;;;;;;5101024;27;20407;-76
2023/10/19 06:05:34;;;;;;;5.57;4.47;;;;;;;;;;5125456;27;20046;-81
2023/10/19 06:08:00;;;;;;;5.05;4.18;;;;;;;;;;5106942;27;20039;-80
2023/10/19 06:10:28;;;;;;;4.45;3.58;;;;;;;;;;5078053;27;20043;-85
2023/10/19 06:12:54;;;;;;;4.78;3.80;;;;;;;;;;5094932;28;20039;-87
2023/10/19 06:15:22;;;;;;;4.93;4.05;;;;;;;;;;5097930;28;20533;-81
2023/10/19 06:17:49;;;;;;;4.30;3.70;;;;;;;;;;5113202;27;20434;-88
2023/10/19 06:20:25;;;;;;;4.60;4.13;;;;;;;;;;5132525;27;20043;-87
2023/10/19 06:22:53;;;;;;;4.70;3.90;;;;;;;;;;5096114;27;20074;-85
2023/10/19 06:25:24;;;;;;;4.68;3.92;;;9.00;67.90;;;;;;5105699;27;20047;-88
2023/10/19 06:27:50;;;;;;;4.75;4.07;;;;;;;;;;5090516;27;20435;-89
2023/10/19 06:30:18;;;;;;;3.85;3.50;;;8.70;59.90;;;;;;5101770;28;20050;-89
2023/10/19 06:32:47;;;;;;;4.38;3.83;;;9.00;65.70;;;;;;5119535;27;20039;-77
2023/10/19 06:35:13;;;;;;;4.25;3.85;;;;;;;;;;5103022;27;20059;-81
2023/10/19 06:37:40;;;;;;;3.60;3.28;;;;;;;;;;5115925;27;20043;-84
2023/10/19 06:40:07;;;;;;;4.38;3.97;;;;;;;;;;5097525;28;20031;-89
2023/10/19 06:42:34;;;;;;;4.15;3.35;;;;;;;;;;5101323;27;20035;-86
2023/10/19 06:45:01;;;;;;;4.10;3.70;;;;;;;;;;5098304;27;20403;-84
2023/10/19 06:47:28;;;;;;;3.92;3.53;;;;;;;;;;5109061;27;20035;-87
2023/10/19 06:49:55;;;;;;;4.07;3.53;;;;;;;;;;5124262;27;20054;-88
2023/10/19 06:52:22;;;;;;;4.15;3.72;;;;;;;;;;5132068;27;20446;-80
2023/10/19 06:54:48;;;;;;;3.42;3.13;;;;;;;;;;5095969;27;20487;-87
2023/10/19 06:57:14;;;;;;;3.33;3.03;;;;;;;;;;5110892;28;20065;-86
2023/10/19 06:59:40;;;;;;;3.22;2.92;;;;;;;;;;5098297;27;20097;-86
2023/10/19 07:02:07;;;;;;;3.58;3.28;;;;;;;;;;5095664;28;20051;-85
2023/10/19 07:04:34;;;;;;;3.60;3.30;;;;;;;;;;5113863;27;20092;-84
2023/10/19 07:07:00;;;;;;;3.20;2.90;;;;;;;;;;5113768;27;20035;-86
2023/10/19 07:09:26;;;;;;;3.50;3.20;;;;;;;;;;5112523;27;20036;-83
2023/10/19 07:11:54;;;;;;;3.50;3.20;;;;;;;;;;5117790;27;20540;-83
2023/10/19 07:14:24;;;;;;;3.22;2.92;;;;;;;;;;5112773;27;20082;-86
2023/10/19 07:16:51;;;;;;;3.38;3.08;;;;;;;;;;5112580;27;20111;-80
2023/10/19 07:19:18;;;;;;;3.53;3.22;;;;;;;;;;5117218;27;20060;-80
2023/10/19 07:21:48;;;;;;;3.63;3.17;;;;;;;;;;5118052;27;20050;-79
2023/10/19 07:24:15;;;;;;;3.03;2.78;;;;;;;;;;5114062;27;20058;-78
2023/10/19 07:26:53;;;;;;;3.08;2.78;;;;;;;;;;5129252;27;20067;-83
2023/10/19 07:29:19;;;;;;;3.13;2.78;;;;;;;;;;5130619;27;20051;-82
2023/10/19 07:31:45;;;;;;;3.22;2.60;;;9.00;89.80;;;;;;5113226;27;20031;-85
2023/10/19 07:34:15;;;;;;;3.17;2.88;;;;;;;;;;5067792;27;20514;-83
2023/10/19 07:36:42;;;;;;;2.90;2.70;;;;;;;;;;5126154;27;20039;-85
2023/10/19 07:39:13;;;;;;;15.98;3.60;;;;;;;;;;5084951;27;20043;-81
2023/10/19 07:41:40;;;;;;;2.70;2.50;;;8.90;65.90;;;;;;5098718;27;20122;-85
2023/10/19 07:44:06;;;;;;;3.22;2.92;;;;;;;;;;5102048;27;20526;-77
2023/10/19 07:46:32;;;;;;;2.50;2.33;;;;;;;;;;5117916;27;20065;-81
2023/10/19 07:49:00;;;;;;;2.63;2.42;;;;;;;;;;5114097;27;20054;-79
2023/10/19 07:51:27;;;;;;;2.80;2.50;;;;;;;;;;5125668;27;20042;-83
2023/10/19 07:53:53;;;;;;;2.85;2.65;;;;;;;;;;5118236;27;20047;-83
2023/10/19 07:56:19;;;;;;;2.63;2.42;;;;;;;;;;5111366;27;20047;-79
2023/10/19 07:58:45;;;;;;;2.97;2.78;;;;;;;;;;5112577;27;20475;-81
2023/10/19 08:01:12;;;;;;;2.63;2.42;;;;;;;;;;5098589;27;20130;-83
2023/10/19 08:03:38;;;;;;;2.25;2.05;;;;;;;;;;5098345;27;20075;-83
2023/10/19 08:06:04;;;;;;;2.58;2.38;;;;;;;;;;5102342;27;20038;-88
2023/10/19 08:08:35;;;;;;;3.15;2.80;;;;;;;;;;5124602;27;20055;-82
2023/10/19 08:11:01;;;;;;;3.42;3.13;;;;;;;;;;5098236;27;20067;-86
2023/10/19 08:13:28;;;;;;;3.22;2.70;;;9.10;71.30;;;;;;5098134;27;20046;-83
2023/10/19 08:15:55;;;;;;;2.92;2.42;;;;;;;;;;5114823;27;20085;-80
2023/10/19 08:18:21;;;;;;;2.40;2.20;;;;;;;;;;5117105;27;20526;-84
2023/10/19 08:20:49;;;;;;;2.42;2.22;;;;;;;;;;5118529;27;20467;-81
2023/10/19 08:23:16;;;;;;;2.25;2.08;;;;;;;;;;5118974;27;20471;-84
2023/10/19 08:25:44;;;;;;;2.78;2.58;;;;;;;;;;5135769;27;20057;-82
2023/10/19 08:28:11;;;;;;;3.85;2.17;;;;;;;;;;5121089;27;20118;-85
2023/10/19 08:30:37;;;;;;;2.97;2.78;;;;;;;;;;5121711;27;20096;-84
2023/10/19 08:33:03;;;;;;;2.63;2.42;;;;;;;;;;5118298;27;20042;-84
2023/10/19 08:35:30;;;;;;;2.72;2.53;;;;;;;;;;5096886;28;20048;-80
2023/10/19 08:38:00;;;;;;;2.92;2.33;;;9.00;71.80;;;;;;5074413;28;20134;-83
2023/10/19 08:40:27;;;;;;;3.20;2.90;;;;;;;;;;5093971;28;20098;-86
2023/10/19 08:42:53;;;;;;;2.88;2.67;;;;;;;;;;5103551;27;20452;-87
2023/10/19 08:45:21;;;;;;;3.25;2.95;;;;;;;;;;5119213;27;20403;-87
2023/10/19 08:48:01;;;;;;;3.05;2.75;;;9.20;72.00;;;;;;5094652;28;20488;-84
2023/10/19 08:50:31;;;;;;;3.30;3.00;;;9.10;74.80;;;;;;5094732;28;20519;-86
2023/10/19 08:52:58;;;;;;;2.90;2.60;;;;;;;;;;5111058;28;20039;-83
2023/10/19 08:55:25;;;;;;;3.65;2.88;;;;;;;;;;5110009;28;20048;-80
2023/10/19 08:57:51;;;;;;;5.30;3.50;;;9.10;91.60;;;;;;5109669;28;20035;-85
2023/10/19 09:00:18;;;;;;;3.40;3.10;;;9.20;69.80;;;;;;5111131;28;20800;-84
2023/10/19 09:02:48;;;;;;;4.97;3.35;;;;;;;;;;5094010;28;20033;-86
2023/10/19 09:05:25;;;;;;;4.18;3.78;;;;;;;;;;5110955;28;20058;-87
2023/10/19 09:07:59;;;;;;;3.95;3.55;;;;;;;;;;5110201;28;20051;-82
2023/10/19 09:10:31;;;;;;;3.50;3.20;;;9.20;77.20;;;;;;5131457;28;20082;-85
2023/10/19 09:13:12;;;;;;;3.50;3.20;;;;;;;;;;5114740;28;20047;-79
2023/10/19 09:15:38;;;;;;;6.68;3.80;;;;;;;;;;5131742;28;20051;-81
2023/10/19 09:18:27;;;;;;;6.22;3.70;;;9.40;80.20;;;;;;5097541;28;20074;-86
2023/10/19 09:20:54;;;;;;;3.88;3.58;;;;;;;;;;5131339;28;20104;-81
2023/10/19 09:23:28;;;;;;;4.55;3.92;;;9.10;78.30;;;;;;5131300;28;20111;-85
2023/10/19 09:25:57;;;;;;;4.25;3.58;;;9.30;75.90;;;;;;5114600;28;20108;-80
2023/10/19 09:28:24;;;;;;;6.70;4.38;;;;;;;;;;5092742;28;20044;-87
2023/10/19 09:30:50;;;;;;;4.10;3.70;;;;;;;;;;5116890;28;20403;-86
2023/10/19 09:33:17;;;;;;;4.53;4.13;;;;;;;;;;5111371;28;20044;-83
2023/10/19 09:35:48;;;;;;;4.88;4.45;;;9.10;76.60;;;;;;5110604;28;20091;-82
2023/10/19 09:38:14;;;;;;;4.93;4.28;;;;;;;;;;5110813;28;20579;-81
2023/10/19 09:40:40;;;;;;;8.10;5.03;;;;;;;;;;5110547;28;20051;-82
2023/10/19 09:43:15;;;;;;;5.50;4.50;;;9.40;75.90;;;;;;5119473;28;20089;-87
2023/10/19 09:45:42;;;;;;;6.45;4.80;;;;;;;;;;5130670;27;20043;-86
2023/10/19 09:48:16;;;;;;;8.20;4.90;;;;;;;;;;5131092;28;20055;-86
2023/10/19 09:50:42;;;;;;;5.90;4.50;;;;;;;;;;5131161;28;20050;-87
2023/10/19 09:53:09;;;;;;;6.93;5.20;;;;;;;;;;5114009;28;20046;-87
2023/10/19 09:55:38;;;;;;;6.53;4.88;;;;;;;;;;5109191;28;20127;-83
2023/10/19 09:58:21;;;;;;;9.98;6.03;;;9.30;77.20;;;;;;5113704;28;20395;-82
2023/10/19 10:00:51;;;;;;;5.72;4.65;;;;;;;;;;5123911;28;20044;-81
2023/10/19 10:03:57;;;;;;;6.03;4.90;;;;;;;;;;5099680;28;20044;-81
2023/10/19 10:06:30;;;;;;;6.28;4.93;;;;;;;;;;5056072;28;20488;-86
2023/10/19 10:08:58;;;;;;;7.00;4.73;;;;;;;;;;5075755;28;20048;-86
2023/10/19 10:11:26;;;;;;;8.32;5.35;;;9.40;76.00;;;;;;5094731;27;20313;-85
2023/10/19 10:13:53;;;;;;;6.20;4.95;;;;;;;;;;5114019;27;20039;-83
2023/10/19 10:16:24;;;;;;;6.50;4.95;;;9.50;77.80;;;;;;5114123;28;20044;-85
2023/10/19 10:18:53;;;;;;;7.82;5.47;;;9.20;71.30;;;;;;5114498;27;20527;-87
2023/10/19 10:21:26;;;;;;;6.40;5.20;;;9.40;66.60;;;;;;5078893;28;20043;-83
2023/10/19 10:24:00;;;;;;;7.57;5.28;;;9.60;79.40;;;;;;5114080;28;20047;-83
2023/10/19 10:26:29;;;;;;;8.43;4.95;;;;;;;;;;5117203;27;20035;-87
2023/10/19 10:29:21;;;;;;;6.63;4.45;;;9.50;81.90;;;;;;5134115;27;20155;-82
2023/10/19 10:31:48;;;;;;;8.00;4.95;;;9.10;93.70;;;;;;5102233;28;20044;-81
2023/10/19 10:34:44;;;;;;;5.90;5.25;;;9.60;72.30;;;;;;5097780;27;20123;-84
2023/10/19 10:37:13;;;;;;;5.90;5.28;;;9.70;79.90;;;;;;5117380;27;20059;-87
2023/10/19 10:39:44;;;;;;;12.52;6.05;;;;;;;;;;5117256;27;20047;-88
2023/10/19 10:42:11;;;;;;;7.35;5.63;;;;;;;;;;5120300;27;20043;-81
2023/10/19 10:44:44;;;;;;;9.27;5.93;;;9.60;70.70;;;;;;5137575;27;20042;-87
2023/10/19 10:47:11;;;;;;;6.18;5.60;;;9.60;79.80;;;;;;5137408;27;20050;-86
2023/10/19 10:50:00;;;;;;;7.95;5.72;;;9.70;72.10;;;;;;5120297;27;20046;-84
2023/10/19 10:52:29;;;;;;;6.32;5.47;;;;;;;;;;5140401;27;20043;-82
2023/10/19 10:54:59;;;;;;;9.30;6.07;;;;;;;;;;5099876;27;20062;-85
2023/10/19 10:57:34;;;;;;;10.00;5.88;;;;;;;;;;5099465;27;20490;-87
2023/10/19 11:00:15;;;;;;;7.85;5.20;;;9.80;84.30;;;;;;5099839;27;20043;-84
2023/10/19 11:02:45;;;;;;;7.72;5.50;;;;;;;;;;5115320;27;20043;-87
2023/10/19 11:05:12;;;;;;;6.18;5.28;;;9.90;80.00;;;;;;5100580;27;20047;-87
2023/10/19 11:07:40;;;;;;;10.95;6.32;;;;;;;;;;5115843;27;20047;-86
2023/10/19 11:10:06;;;;;;;8.23;5.82;;;;;;;;;;5116595;27;20403;-79
2023/10/19 11:12:32;;;;;;;8.23;6.32;;;9.90;94.90;;;;;;5098943;27;20388;-85
2023/10/19 11:14:59;;;;;;;8.60;6.15;;;;;;;;;;5114677;27;20114;-82
2023/10/19 11:17:30;;;;;;;10.27;6.68;;;9.80;95.00;;;;;;5131309;27;20132;-82
2023/10/19 11:19:59;;;;;;;9.18;6.30;;;;;;;;;;5116440;27;20491;-81
2023/10/19 11:22:26;;;;;;;9.27;6.18;;;10.00;80.30;;;;;;5104308;28;20122;-83
2023/10/19 11:24:56;;;;;;;12.48;7.45;;;;;;;;;;5095836;28;20043;-80
2023/10/19 11:27:26;;;;;;;10.43;7.03;;;10.00;81.30;;;;;;5123738;27;20042;-82
2023/10/19 11:29:56;;;;;;;10.98;6.65;;;;;;;;;;5098008;27;20075;-79
2023/10/19 11:32:25;;;;;;;8.77;6.43;;;;;;;;;;5082575;27;20039;-79
2023/10/19 11:34:52;;;;;;;8.60;5.97;;;9.90;95.20;;;;;;5115682;27;20063;-78
2023/10/19 11:37:17;;;;;;;8.00;5.40;;;9.90;95.40;;;;;;5081292;27;20047;-81
2023/10/19 11:39:44;;;;;;;11.38;6.30;;;;;;;;;;5083347;27;20057;-84
2023/10/19 11:42:10;;;;;;;7.55;5.97;;;9.90;95.20;;;;;;5116164;27;20043;-85
2023/10/19 11:44:36;;;;;;;7.90;5.35;;;;;;;;;;5115971;27;20042;-82
2023/10/19 11:47:03;;;;;;;9.68;6.50;;;10.00;95.40;;;;;;5115649;27;20094;-81
2023/10/19 11:49:29;;;;;;;11.88;6.45;;;;;;;;;;5080923;27;20121;-85
2023/10/19 11:51:55;;;;;;;9.57;7.13;;;;;;;;;;5134508;27;20039;-83
2023/10/19 11:54:21;;;;;;;10.40;6.07;;;;;;;;;;5118527;27;20051;-87
2023/10/19 11:56:48;;;;;;;7.93;6.60;;;;;;;;;;5118634;27;20042;-81
2023/10/19 11:59:15;;;;;;;7.63;6.18;;;;;;;;;;5115094;27;20039;-86
2023/10/19 12:01:42;;;;;;;9.77;7.05;;;;;;;;;;5099025;27;20376;-76
2023/10/19 12:04:09;;;;;;;12.13;7.43;;;;;;;;;;5117597;27;20034;-87
2023/10/19 12:06:35;;;;;;;8.77;7.22;;;;;;;;;;5136271;27;20053;-87
2023/10/19 12:09:14;;;;;;;9.18;6.78;;;;;;;;;;5115527;27;20523;-83
2023/10/19 12:11:40;;;;;;;8.25;6.60;;;;;;;;;;5131869;27;20128;-81
2023/10/19 12:14:11;;;;;;;6.63;5.88;;;;;;;;;;5114219;27;20035;-78
2023/10/19 12:16:39;;;;;;;7.43;5.63;;;10.00;95.10;;;;;;5118979;27;20046;-82
2023/10/19 12:19:05;;;;;;;6.25;5.22;;;;;;;;;;5118957;27;20085;-78
2023/10/19 12:21:31;;;;;;;10.70;6.43;;;;;;;;;;5132521;27;20082;-77
2023/10/19 12:23:59;;;;;;;6.40;5.20;;;;;;;;;;5128332;27;20099;-81
2023/10/19 12:26:25;;;;;;;7.05;6.28;;;;;;;;;;5154575;27;20096;-77
2023/10/19 12:28:51;;;;;;;6.75;6.00;;;;;;;;;;5135286;27;20134;-76
2023/10/19 12:31:22;;;;;;;9.70;6.88;;;;;;;;;;5154152;27;20035;-74
2023/10/19 12:33:48;;;;;;;10.07;7.55;;;;;;;;;;5109641;27;20043;-76
2023/10/19 12:38:49;;;;;;;12.88;7.50;;;;;;;;;;5111463;28;20530;-87
2023/10/19 12:41:17;;;;;;;9.90;7.40;;;;;;;;;;5112940;28;20039;-87
2023/10/19 12:43:43;;;;;;;10.63;8.25;;;;;;;;;;5110663;27;20042;-76
2023/10/19 12:46:11;;;;;;;10.07;8.30;;;;;;;;;;5112066;28;20453;-78
2023/10/19 12:48:37;;;;;;;11.77;10.05;;;10.00;94.00;;;;;;5094056;28;20043;-76
2023/10/19 12:51:06;;;;;;;15.57;10.13;;;10.00;83.80;;;;;;5077412;28;20121;-76
2023/10/19 12:53:33;;;;;;;13.75;10.93;;;;;;;;;;5111164;28;20135;-79
2023/10/19 12:55:59;;;;;;;12.95;11.45;;;;;;;;;;5110310;28;20051;-78
2023/10/19 12:58:27;;;;;;;20.90;11.65;;;;;;;;;;5123576;28;20095;-82
2023/10/19 13:00:55;;;;;;;17.13;13.70;;;;;;;;;;5131604;28;20040;-76
2023/10/19 13:03:23;;;;;;;21.52;13.40;;;;;;;;;;5132914;27;20047;-79
2023/10/19 13:05:49;;;;;;;24.73;13.98;;;9.90;96.80;;;;;;5123159;27;20116;-85
2023/10/19 13:08:16;;;;;;;17.63;13.52;;;;;;;;;;5112458;28;20095;-86
2023/10/19 13:10:43;;;;;;;21.10;12.40;;;10.00;84.70;;;;;;5111104;28;20054;-81
2023/10/19 13:13:13;;;;;;;21.73;9.50;;;;;;;;;;5112828;28;20100;-87
2023/10/19 13:15:40;;;;;;;10.48;8.20;;;10.00;97.00;;;;;;5110111;28;20051;-76
2023/10/19 13:18:09;;;;;;;9.75;7.60;;;10.00;85.10;;;;;;5125610;28;20130;-76
2023/10/19 13:20:36;;;;;;;12.25;8.98;;;9.90;79.30;;;;;;5132978;27;20092;-84
2023/10/19 13:23:06;;;;;;;12.35;8.02;;;;;;;;;;5131654;28;20399;-75
2023/10/19 13:25:41;;;;;;;8.85;7.15;;;9.70;83.10;;;;;;5119934;28;20043;-76
2023/10/19 13:28:11;;;;;;;10.68;7.28;;;9.80;80.40;;;;;;5126931;28;20047;-80
2023/10/19 13:30:41;;;;;;;9.35;6.55;;;;;;;;;;5131495;28;20068;-81
2023/10/19 13:33:09;;;;;;;9.85;6.50;;;9.50;96.90;;;;;;5109305;28;20065;-77
2023/10/19 13:35:39;;;;;;;8.57;6.00;;;9.80;84.70;;;;;;5093742;28;20553;-77
2023/10/19 13:38:06;;;;;;;10.27;6.65;;;9.70;97.00;;;;;;5077039;28;20040;-75
2023/10/19 13:40:32;;;;;;;7.53;5.85;;;9.70;78.20;;;;;;5129815;27;20078;-76
2023/10/19 13:42:59;;;;;;;12.55;5.70;;;;;;;;;;5104434;28;20046;-79
2023/10/19 13:45:28;;;;;;;6.28;5.68;;;;;;;;;;5098119;28;20089;-79
2023/10/19 13:47:54;;;;;;;13.45;6.65;;;;;;;;;;5113354;28;20039;-76
2023/10/19 13:50:24;;;;;;;10.27;6.72;;;;;;;;;;5121597;27;20140;-80
2023/10/19 13:52:51;;;;;;;10.93;6.65;;;;;;;;;;5117812;27;20100;-79
2023/10/19 13:55:18;;;;;;;9.73;6.30;;;9.80;94.20;;;;;;5135144;27;20075;-81
2023/10/19 13:57:45;;;;;;;9.35;6.43;;;;;;;;;;5104885;28;20043;-78
2023/10/19 14:00:30;;;;;;;11.13;7.20;;;9.70;83.10;;;;;;5115379;28;20575;-80
2023/10/19 14:03:01;;;;;;;10.00;7.20;;;9.70;97.10;;;;;;5116517;27;20619;-78
2023/10/19 14:05:27;;;;;;;9.07;6.60;;;9.80;79.10;;;;;;5114333;28;20048;-77
2023/10/19 14:07:54;;;;;;;9.43;7.47;;;;;;;;;;5112997;28;20511;-79
2023/10/19 14:10:21;;;;;;;10.77;7.72;;;;;;;;;;5115551;28;20035;-78
2023/10/19 14:12:48;;;;;;;16.02;7.68;;;;;;;;;;5114415;28;20048;-79
2023/10/19 14:15:15;;;;;;;12.27;8.18;;;;;;;;;;5125909;27;20075;-82
2023/10/19 14:17:41;;;;;;;15.02;7.13;;;9.70;97.30;;;;;;5122737;27;20154;-82
2023/10/19 14:20:17;;;;;;;10.95;7.00;;;;;;;;;;5112820;28;20040;-85
2023/10/19 14:22:48;;;;;;;16.85;8.07;;;;;;;;;;5115000;27;20043;-83
2023/10/19 14:25:15;;;;;;;9.55;6.43;;;9.70;80.50;;;;;;5113960;28;20130;-81
2023/10/19 14:27:45;;;;;;;12.02;7.30;;;;;;;;;;5098636;27;20065;-82
2023/10/19 14:30:13;;;;;;;14.00;7.00;;;9.60;86.40;;;;;;5125360;27;20505;-78
2023/10/19 14:32:43;;;;;;;9.05;6.95;;;;;;;;;;5113223;28;20039;-85
2023/10/19 14:35:14;;;;;;;11.65;6.70;;;9.70;97.40;;;;;;5096667;28;20060;-82